Time;durP1;ratioP1;P1;durP2;ratioP2;P2;SDS_P1;SDS_P2;PMS_P1;PMS_P2;Temp;Humidity;BMP_temperature;BMP_pressure;BME280_temperature;BME280_humidity;BME280_pressure;Samples;Min_cycle;Max_cycle;Signal;HPM_P1;HPM_P2
2022/10/24 00:04:45;;;;;;;2.78;1.38;;;15.40;99.90;;;;;;10420952;28;20022;-63
2022/10/24 00:09:46;;;;;;;3.03;1.50;;;15.40;99.90;;;;;;10422061;28;20022;-62
2022/10/24 00:14:47;;;;;;;3.13;1.30;;;15.40;99.90;;;;;;10422461;28;20048;-62
2022/10/24 00:19:47;;;;;;;3.35;1.50;;;15.40;99.90;;;;;;10425996;28;20127;-63
2022/10/24 00:24:48;;;;;;;4.40;1.25;;;15.40;99.90;;;;;;10418555;28;20021;-62
2022/10/24 00:29:49;;;;;;;5.00;1.42;;;15.40;99.90;;;;;;10419557;28;20033;-63
2022/10/24 00:34:49;;;;;;;3.30;1.20;;;15.40;99.90;;;;;;10420607;28;20100;-62
2022/10/24 00:39:50;;;;;;;6.07;0.90;;;15.40;99.90;;;;;;10423216;28;20408;-61
2022/10/24 00:44:52;;;;;;;3.25;1.30;;;15.30;99.90;;;;;;10419399;28;20086;-63
2022/10/24 00:50:11;;;;;;;2.67;1.20;;;15.30;99.90;;;;;;10418751;28;20029;-62
2022/10/24 00:55:14;;;;;;;4.40;1.70;;;15.30;99.90;;;;;;10419419;28;20037;-62
2022/10/24 01:00:22;;;;;;;4.25;1.10;;;15.40;99.90;;;;;;10419226;28;20566;-62
2022/10/24 01:05:28;;;;;;;3.65;1.20;;;15.40;99.90;;;;;;10419753;28;20045;-61
2022/10/24 01:10:34;;;;;;;2.53;1.30;;;15.40;99.90;;;;;;10417284;28;20029;-63
2022/10/24 01:15:58;;;;;;;2.30;1.25;;;15.40;99.90;;;;;;10408611;28;20117;-62
2022/10/24 01:21:10;;;;;;;3.63;1.30;;;15.40;99.90;;;;;;10413136;28;20052;-62
2022/10/24 01:26:33;;;;;;;3.65;1.42;;;15.40;99.90;;;;;;10411781;28;20083;-62
2022/10/24 01:31:44;;;;;;;7.05;1.77;;;15.40;99.90;;;;;;10412455;28;20052;-62
2022/10/24 01:37:24;;;;;;;3.78;1.80;;;15.40;99.90;;;;;;10400612;28;20024;-62
2022/10/24 01:42:26;;;;;;;3.60;1.70;;;15.40;99.90;;;;;;10390985;28;20037;-64
2022/10/24 01:47:33;;;;;;;4.20;1.85;;;15.40;99.90;;;;;;10422956;28;20029;-62
2022/10/24 01:52:38;;;;;;;3.80;2.00;;;15.40;99.90;;;;;;10414822;28;20355;-63
2022/10/24 01:57:39;;;;;;;3.80;1.58;;;15.40;99.90;;;;;;10415306;28;20029;-62
2022/10/24 02:02:42;;;;;;;6.68;1.75;;;15.30;99.90;;;;;;10416271;28;20528;-63
2022/10/24 02:07:47;;;;;;;3.47;1.50;;;15.30;99.90;;;;;;10420649;28;20023;-63
2022/10/24 02:12:56;;;;;;;4.25;1.75;;;15.30;99.90;;;;;;10407411;28;20025;-62
2022/10/24 02:17:57;;;;;;;3.78;1.60;;;15.30;99.90;;;;;;10415483;28;20037;-63
2022/10/24 02:23:08;;;;;;;4.90;1.92;;;15.30;99.90;;;;;;10416234;28;20088;-62
2022/10/24 02:28:14;;;;;;;2.97;1.40;;;15.30;99.90;;;;;;10417177;28;20568;-62
2022/10/24 02:33:16;;;;;;;1.63;1.20;;;15.30;99.90;;;;;;10415229;28;20025;-62
2022/10/24 02:38:29;;;;;;;4.88;1.90;;;15.30;99.90;;;;;;10417640;28;20021;-62
2022/10/24 02:43:31;;;;;;;3.28;1.58;;;15.30;99.90;;;;;;10414837;28;20140;-61
2022/10/24 02:48:37;;;;;;;4.45;1.63;;;15.30;99.90;;;;;;10405280;28;20504;-62
2022/10/24 02:53:38;;;;;;;2.90;1.48;;;15.30;99.90;;;;;;10416897;28;20113;-62
2022/10/24 02:58:39;;;;;;;3.13;1.58;;;15.30;99.90;;;;;;10413597;28;20042;-63
2022/10/24 03:03:40;;;;;;;3.85;2.00;;;15.30;99.90;;;;;;10413730;28;20017;-62
2022/10/24 03:08:41;;;;;;;4.43;1.70;;;15.30;99.90;;;;;;10416418;28;20120;-61
2022/10/24 03:13:41;;;;;;;2.92;1.85;;;15.30;99.90;;;;;;10419493;28;20381;-63
2022/10/24 03:18:42;;;;;;;6.68;1.85;;;15.30;99.90;;;;;;10415604;28;20470;-62
2022/10/24 03:23:43;;;;;;;3.25;1.67;;;15.30;99.90;;;;;;10420037;28;20033;-62
2022/10/24 03:28:43;;;;;;;2.55;1.50;;;15.30;99.90;;;;;;10413454;28;20262;-61
2022/10/24 03:33:44;;;;;;;5.68;1.77;;;15.30;99.90;;;;;;10413015;28;20022;-63
2022/10/24 03:38:44;;;;;;;5.82;2.03;;;15.30;99.90;;;;;;10414864;28;20033;-62
2022/10/24 03:43:45;;;;;;;4.20;1.50;;;15.30;99.90;;;;;;10414288;28;20073;-62
2022/10/24 03:48:46;;;;;;;6.10;2.08;;;15.30;99.90;;;;;;10413934;28;20132;-62
2022/10/24 03:53:46;;;;;;;4.15;1.73;;;15.30;99.90;;;;;;10410234;28;20108;-63
2022/10/24 03:58:47;;;;;;;3.10;1.80;;;15.30;99.90;;;;;;10412401;28;20490;-62
2022/10/24 04:03:48;;;;;;;3.92;1.80;;;15.30;99.90;;;;;;10410368;28;20028;-62
2022/10/24 04:08:49;;;;;;;4.40;1.75;;;15.30;99.90;;;;;;10414540;28;20021;-62
2022/10/24 04:13:51;;;;;;;4.63;1.90;;;15.30;99.90;;;;;;10412810;28;20033;-62
2022/10/24 04:18:52;;;;;;;4.05;2.05;;;15.30;99.90;;;;;;10412300;28;20037;-63
2022/10/24 04:23:53;;;;;;;5.65;2.20;;;15.20;99.90;;;;;;10416862;28;20436;-62
2022/10/24 04:28:53;;;;;;;4.22;1.65;;;15.20;99.90;;;;;;10415074;28;20043;-62
2022/10/24 04:33:54;;;;;;;3.40;2.10;;;15.20;99.90;;;;;;10412543;28;20123;-63
2022/10/24 04:38:55;;;;;;;3.97;2.05;;;15.20;99.90;;;;;;10412880;28;20029;-64
2022/10/24 04:43:55;;;;;;;5.47;2.08;;;15.20;99.90;;;;;;10411474;28;20156;-63
2022/10/24 04:48:56;;;;;;;2.67;1.70;;;15.20;99.90;;;;;;10414467;28;20088;-64
2022/10/24 04:53:57;;;;;;;4.40;1.80;;;15.20;99.90;;;;;;10413121;28;20045;-62
2022/10/24 04:58:58;;;;;;;2.92;1.75;;;15.20;99.90;;;;;;10409051;28;20041;-61
2022/10/24 05:03:58;;;;;;;7.30;2.15;;;15.20;99.90;;;;;;10410145;28;20049;-62
2022/10/24 05:08:59;;;;;;;2.70;1.52;;;15.20;99.90;;;;;;10412042;28;20393;-62
2022/10/24 05:14:00;;;;;;;6.03;1.63;;;15.10;99.90;;;;;;10411721;28;20026;-63
2022/10/24 05:19:01;;;;;;;4.63;1.95;;;15.10;99.90;;;;;;10417543;28;20092;-62
2022/10/24 05:24:02;;;;;;;6.53;2.30;;;15.20;99.90;;;;;;10409978;28;20129;-62
2022/10/24 05:29:03;;;;;;;5.93;1.95;;;15.10;99.90;;;;;;10419799;28;20522;-65
2022/10/24 05:34:03;;;;;;;3.63;1.83;;;15.10;99.90;;;;;;10419927;28;20429;-62
2022/10/24 05:39:04;;;;;;;4.90;1.75;;;15.10;99.90;;;;;;10420474;28;20087;-62
2022/10/24 05:44:05;;;;;;;3.75;2.05;;;15.10;99.90;;;;;;10420129;28;20528;-62
2022/10/24 05:49:06;;;;;;;2.60;1.58;;;15.10;99.90;;;;;;10419722;28;20068;-61
2022/10/24 05:54:06;;;;;;;3.92;1.60;;;15.10;99.90;;;;;;10416061;28;20837;-62
2022/10/24 05:59:07;;;;;;;5.88;1.77;;;15.10;99.90;;;;;;10414042;28;20033;-62
2022/10/24 06:04:08;;;;;;;8.90;1.60;;;15.10;99.90;;;;;;10411660;28;20485;-62
2022/10/24 06:09:11;;;;;;;2.20;1.40;;;15.10;99.90;;;;;;10419851;28;20029;-62
2022/10/24 06:14:12;;;;;;;4.25;1.30;;;15.10;99.90;;;;;;10418393;28;20040;-62
2022/10/24 06:19:13;;;;;;;4.53;1.40;;;15.10;99.90;;;;;;10417777;28;20120;-61
2022/10/24 06:24:14;;;;;;;3.22;1.65;;;15.10;99.90;;;;;;10422815;28;20048;-63
2022/10/24 06:29:14;;;;;;;3.97;1.40;;;15.10;99.90;;;;;;10422391;28;20045;-61
2022/10/24 06:34:15;;;;;;;3.05;1.33;;;15.10;99.90;;;;;;10419465;28;20124;-61
2022/10/24 06:39:16;;;;;;;6.63;1.67;;;15.10;99.90;;;;;;10424561;28;20045;-61
2022/10/24 06:44:17;;;;;;;3.40;1.27;;;15.10;99.90;;;;;;10407841;28;20037;-62
2022/10/24 06:49:17;;;;;;;6.85;1.40;;;15.10;99.90;;;;;;10350514;28;20064;-61
2022/10/24 06:54:18;;;;;;;3.03;1.42;;;15.10;99.90;;;;;;10353485;28;20302;-61
2022/10/24 06:59:19;;;;;;;5.65;1.50;;;15.10;99.90;;;;;;10348046;28;20056;-62
2022/10/24 07:04:20;;;;;;;5.72;1.40;;;15.20;99.90;;;;;;10336958;28;20033;-63
2022/10/24 07:09:20;;;;;;;4.68;2.38;;;15.10;99.90;;;;;;10349185;28;20714;-61
2022/10/24 07:14:21;;;;;;;3.05;1.10;;;15.20;99.90;;;;;;10324161;28;20025;-61
2022/10/24 07:19:22;;;;;;;2.67;1.30;;;15.20;99.90;;;;;;10346670;28;20051;-62
2022/10/24 07:24:22;;;;;;;3.47;1.45;;;15.20;99.90;;;;;;10339421;28;20040;-61
2022/10/24 07:29:23;;;;;;;3.22;1.30;;;15.20;99.90;;;;;;10326216;28;20486;-65
2022/10/24 07:34:24;;;;;;;3.97;1.52;;;15.20;99.90;;;;;;10343149;28;20438;-61
2022/10/24 07:39:25;;;;;;;4.15;1.27;;;15.20;99.90;;;;;;10341010;28;20077;-61
2022/10/24 07:44:25;;;;;;;2.20;1.38;;;15.20;99.90;;;;;;10326736;28;20382;-64
2022/10/24 07:49:26;;;;;;;4.95;1.30;;;15.30;99.90;;;;;;10333633;28;20139;-61
2022/10/24 07:54:27;;;;;;;2.72;1.10;;;15.30;99.90;;;;;;10344712;28;20151;-61
2022/10/24 07:59:28;;;;;;;5.90;1.50;;;15.30;99.90;;;;;;10339405;28;20041;-62
2022/10/24 08:04:29;;;;;;;5.80;1.35;;;15.30;99.90;;;;;;10342984;28;20126;-61
2022/10/24 08:09:30;;;;;;;5.43;1.27;;;15.30;99.90;;;;;;10340690;28;20037;-61
2022/10/24 08:14:30;;;;;;;2.05;1.00;;;15.30;99.90;;;;;;10345708;28;20028;-62
2022/10/24 08:19:32;;;;;;;3.70;1.08;;;15.40;99.90;;;;;;10348594;28;20044;-61
2022/10/24 08:24:32;;;;;;;2.85;1.20;;;15.40;99.90;;;;;;10336910;28;20485;-63
2022/10/24 08:29:33;;;;;;;5.40;1.33;;;15.40;99.90;;;;;;10336869;28;20116;-63
2022/10/24 08:34:36;;;;;;;3.25;1.13;;;15.40;99.90;;;;;;10345675;28;20137;-62
2022/10/24 08:39:38;;;;;;;4.72;1.67;;;15.50;99.90;;;;;;10333299;28;20041;-65
2022/10/24 08:44:41;;;;;;;3.38;1.10;;;15.70;99.90;;;;;;10334739;28;20122;-61
2022/10/24 08:49:55;;;;;;;5.30;1.30;;;15.50;99.90;;;;;;10343581;28;20029;-71
2022/10/24 08:55:08;;;;;;;6.07;1.30;;;15.50;99.90;;;;;;10345650;28;20037;-61
2022/10/24 09:00:25;;;;;;;2.47;1.00;;;15.60;99.90;;;;;;10339930;28;20041;-61
2022/10/24 09:05:32;;;;;;;3.30;1.17;;;15.60;99.90;;;;;;10318437;28;20083;-61
2022/10/24 09:10:42;;;;;;;4.38;1.17;;;15.60;99.90;;;;;;10311841;28;20538;-61
2022/10/24 09:15:44;;;;;;;5.32;2.15;;;15.60;99.90;;;;;;10312274;28;20498;-71
2022/10/24 09:20:47;;;;;;;5.60;1.30;;;15.60;99.90;;;;;;10319343;28;20616;-61
2022/10/24 09:25:51;;;;;;;5.10;1.27;;;15.60;99.90;;;;;;10322463;28;20030;-60
2022/10/24 09:30:52;;;;;;;1.95;1.00;;;15.70;99.90;;;;;;10314305;28;20291;-61
2022/10/24 09:35:56;;;;;;;4.03;1.27;;;15.70;99.90;;;;;;10314882;28;20049;-61
2022/10/24 09:41:03;;;;;;;2.83;0.80;;;15.70;99.90;;;;;;10314421;28;20500;-61
2022/10/24 09:46:07;;;;;;;3.08;1.20;;;15.80;99.90;;;;;;10310936;28;20069;-61
2022/10/24 09:51:08;;;;;;;7.53;1.35;;;15.90;99.90;;;;;;10316060;28;20405;-61
2022/10/24 09:56:12;;;;;;;2.50;1.10;;;15.90;99.90;;;;;;10315316;28;20470;-61
2022/10/24 10:01:13;;;;;;;4.18;1.10;;;15.90;99.90;;;;;;10311650;28;20317;-60
2022/10/24 10:06:17;;;;;;;3.28;1.00;;;15.90;99.90;;;;;;10322116;28;20022;-60
2022/10/24 10:11:25;;;;;;;5.30;1.27;;;16.00;99.90;;;;;;10322696;28;20088;-61
2022/10/24 10:16:29;;;;;;;3.08;1.00;;;16.00;99.90;;;;;;10331486;28;20090;-60
2022/10/24 10:21:52;;;;;;;2.97;0.93;;;16.00;99.90;;;;;;10331446;28;20463;-61
2022/10/24 10:26:52;;;;;;;5.68;1.45;;;16.00;99.90;;;;;;10316025;28;20033;-61
2022/10/24 10:32:06;;;;;;;4.22;1.23;;;16.10;99.90;;;;;;10325707;28;20412;-60
2022/10/24 10:37:32;;;;;;;2.85;0.90;;;16.10;99.90;;;;;;10321326;28;20036;-60
2022/10/24 10:42:55;;;;;;;2.28;0.90;;;16.10;99.90;;;;;;10321297;28;20666;-61
2022/10/24 10:48:14;;;;;;;3.38;0.90;;;16.10;99.90;;;;;;10316194;28;20166;-61
2022/10/24 10:53:39;;;;;;;6.80;0.90;;;16.20;99.90;;;;;;10318394;28;20121;-61
2022/10/24 10:58:58;;;;;;;4.38;1.25;;;16.20;99.90;;;;;;10318090;28;20045;-72
2022/10/24 11:04:23;;;;;;;3.95;1.00;;;16.20;99.90;;;;;;10323559;28;20032;-60
2022/10/24 11:09:37;;;;;;;4.68;0.90;;;16.10;99.90;;;;;;10325133;28;20196;-62
2022/10/24 11:14:47;;;;;;;2.35;0.88;;;16.20;99.90;;;;;;10323005;28;20057;-63
2022/10/24 11:20:13;;;;;;;2.80;0.88;;;16.20;99.90;;;;;;10325336;28;20332;-61
2022/10/24 11:25:24;;;;;;;2.92;0.82;;;16.20;99.90;;;;;;10323621;28;20025;-60
2022/10/24 11:30:41;;;;;;;2.40;0.80;;;16.20;99.90;;;;;;10321026;28;20048;-61
2022/10/24 11:36:00;;;;;;;3.78;1.25;;;16.20;99.90;;;;;;10321210;28;20127;-61
2022/10/24 11:41:27;;;;;;;2.80;0.75;;;16.30;99.90;;;;;;10318670;28;20557;-61
2022/10/24 11:46:41;;;;;;;2.80;0.77;;;16.30;99.90;;;;;;10215524;28;20046;-62
2022/10/24 11:51:50;;;;;;;5.05;0.80;;;16.30;99.90;;;;;;10245663;28;21087;-61
2022/10/24 11:57:03;;;;;;;1.65;0.73;;;16.30;99.90;;;;;;10241334;28;20473;-68
2022/10/24 12:02:31;;;;;;;4.38;0.82;;;16.30;99.90;;;;;;10332993;23;20080;-62
2022/10/24 12:08:33;;;;;;;5.97;1.13;;;16.30;99.90;;;;;;10319680;28;20045;-62
2022/10/24 12:14:10;;;;;;;4.88;0.73;;;16.30;99.90;;;;;;10218561;28;20045;-62
2022/10/24 12:19:18;;;;;;;3.67;1.33;;;16.40;99.90;;;;;;10301469;28;20526;-62
2022/10/24 12:24:40;;;;;;;6.53;0.90;;;16.40;99.90;;;;;;10319830;28;20556;-61
2022/10/24 12:29:42;;;;;;;5.65;0.68;;;16.40;99.90;;;;;;10321699;28;20620;-62
2022/10/24 12:34:43;;;;;;;5.45;0.82;;;16.40;99.90;;;;;;10326020;28;20500;-61
2022/10/24 12:39:47;;;;;;;1.85;0.70;;;16.30;99.90;;;;;;10325012;28;20742;-61
2022/10/24 12:44:49;;;;;;;4.90;0.88;;;16.30;99.90;;;;;;10323591;28;20017;-62
2022/10/24 12:50:20;;;;;;;6.90;1.23;;;16.30;99.90;;;;;;10322316;28;20337;-60
2022/10/24 12:55:48;;;;;;;9.05;0.80;;;16.40;99.60;;;;;;10321490;28;20211;-61
2022/10/24 13:01:00;;;;;;;;;;;16.40;99.40;;;;;;10310796;28;20072;-61
2022/10/24 13:06:18;;;;;;;5.70;0.90;;;16.40;99.50;;;;;;10319051;28;20348;-61
2022/10/24 13:11:48;;;;;;;1.95;0.60;;;16.40;99.70;;;;;;10322897;28;20034;-61
2022/10/24 13:17:01;;;;;;;1.48;0.60;;;16.30;99.80;;;;;;10315756;28;20592;-60
2022/10/24 13:22:02;;;;;;;4.63;0.90;;;16.20;99.90;;;;;;10321320;28;20473;-60
2022/10/24 13:27:02;;;;;;;3.58;0.93;;;16.30;99.90;;;;;;10321839;28;20375;-60
2022/10/24 13:32:03;;;;;;;3.95;1.13;;;16.50;99.90;;;;;;10323009;28;20486;-61
2022/10/24 13:37:11;;;;;;;3.55;1.00;;;16.40;99.90;;;;;;10321646;28;20032;-62
2022/10/24 13:42:31;;;;;;;3.05;0.82;;;16.40;99.90;;;;;;10328149;28;20080;-60
2022/10/24 13:47:40;;;;;;;2.80;1.10;;;16.20;99.90;;;;;;10301033;28;20561;-62
2022/10/24 13:52:41;;;;;;;3.83;1.00;;;16.20;99.90;;;;;;10320244;28;20401;-61
2022/10/24 13:58:07;;;;;;;4.78;1.10;;;16.10;99.90;;;;;;10317002;28;20413;-63
2022/10/24 14:03:16;;;;;;;3.75;1.05;;;16.10;99.90;;;;;;10316806;28;20187;-62
2022/10/24 14:08:31;;;;;;;4.93;1.15;;;16.20;99.90;;;;;;10330573;28;20413;-62
2022/10/24 14:13:35;;;;;;;2.85;0.82;;;16.20;99.90;;;;;;10327456;28;20040;-61
2022/10/24 14:18:38;;;;;;;5.70;1.55;;;16.20;99.90;;;;;;10322491;28;20336;-64
2022/10/24 14:23:40;;;;;;;3.65;0.85;;;16.20;99.90;;;;;;10326860;28;20033;-61
2022/10/24 14:28:45;;;;;;;8.25;1.30;;;16.30;99.90;;;;;;10333277;28;20525;-61
2022/10/24 14:33:49;;;;;;;4.65;1.02;;;16.30;99.90;;;;;;10333569;28;20663;-62
2022/10/24 14:38:54;;;;;;;4.22;1.00;;;16.30;99.90;;;;;;10329072;28;20049;-61
2022/10/24 14:43:57;;;;;;;4.80;0.90;;;16.30;99.90;;;;;;10322993;28;20025;-61
2022/10/24 14:49:32;;;;;;;2.03;1.10;;;16.30;99.90;;;;;;10319917;28;20047;-62
2022/10/24 14:54:34;;;;;;;2.88;1.17;;;16.20;99.90;;;;;;10316799;28;20033;-61
2022/10/24 14:59:42;;;;;;;2.45;1.15;;;16.20;99.90;;;;;;10321255;28;20422;-62
2022/10/24 15:04:44;;;;;;;6.78;1.35;;;16.20;99.90;;;;;;10314546;28;20034;-61
2022/10/24 15:09:56;;;;;;;4.70;1.20;;;16.20;99.90;;;;;;10306416;28;20029;-61
2022/10/24 15:15:25;;;;;;;3.00;1.00;;;16.20;99.90;;;;;;10304841;28;20095;-61
2022/10/24 15:20:28;;;;;;;3.65;1.33;;;16.20;99.90;;;;;;10298234;28;20676;-62
2022/10/24 15:25:35;;;;;;;3.28;1.05;;;16.10;99.90;;;;;;10310943;28;20037;-61
2022/10/24 15:30:36;;;;;;;2.83;1.13;;;16.10;99.90;;;;;;10323889;28;20041;-65
2022/10/24 15:35:41;;;;;;;3.28;1.08;;;16.10;99.90;;;;;;10324730;28;20662;-63
2022/10/24 15:40:45;;;;;;;4.88;1.65;;;16.10;99.90;;;;;;10324141;28;20639;-61
2022/10/24 15:45:46;;;;;;;3.55;1.38;;;16.00;99.90;;;;;;10317897;28;20025;-62
2022/10/24 15:50:47;;;;;;;2.83;1.30;;;16.00;99.90;;;;;;10318476;28;20124;-61
2022/10/24 15:55:48;;;;;;;4.30;1.00;;;16.00;99.90;;;;;;10325601;28;20517;-61
2022/10/24 16:00:49;;;;;;;2.88;1.13;;;16.00;99.90;;;;;;10320127;28;20140;-69
2022/10/24 16:05:55;;;;;;;3.28;1.25;;;16.00;99.90;;;;;;10324795;28;20529;-64
2022/10/24 16:10:56;;;;;;;6.72;1.35;;;16.00;99.90;;;;;;10321233;28;20400;-61
2022/10/24 16:15:57;;;;;;;3.05;1.38;;;16.00;99.90;;;;;;10306172;28;20025;-62
2022/10/24 16:20:58;;;;;;;2.88;1.02;;;15.90;99.90;;;;;;10301426;28;20565;-61
2022/10/24 16:37:02;;;;;;;3.92;1.48;;;16.60;99.90;;;;;;10535063;27;20183;-62
2022/10/24 16:42:04;;;;;;;4.75;1.52;;;15.30;99.90;;;;;;10524604;27;20482;-62
2022/10/24 16:47:05;;;;;;;5.15;2.17;;;15.40;99.90;;;;;;10512912;27;20020;-61
2022/10/24 16:52:06;;;;;;;5.45;1.95;;;15.40;99.90;;;;;;10597904;27;20028;-61
2022/10/24 16:57:07;;;;;;;4.15;1.60;;;15.50;99.90;;;;;;10606610;27;20039;-60
2022/10/24 17:02:10;;;;;;;3.67;1.65;;;15.50;99.90;;;;;;10603164;27;20023;-62
2022/10/24 17:07:13;;;;;;;4.32;1.90;;;15.50;99.90;;;;;;10606314;27;20032;-62
2022/10/24 17:12:14;;;;;;;5.90;1.58;;;15.50;99.90;;;;;;10608920;27;20072;-67
2022/10/24 17:17:14;;;;;;;6.22;2.40;;;15.60;99.90;;;;;;10609947;27;20031;-62
2022/10/24 17:22:16;;;;;;;3.08;1.63;;;15.60;99.90;;;;;;10610584;27;20293;-61
2022/10/24 17:27:17;;;;;;;3.88;1.73;;;15.60;99.90;;;;;;10609532;27;20422;-62
2022/10/24 17:32:18;;;;;;;5.32;1.92;;;16.20;99.90;;;;;;10599098;27;20028;-62
2022/10/24 17:37:33;;;;;;;4.55;1.20;;;15.60;99.90;;;;;;10600207;27;20032;-62
2022/10/24 17:42:34;;;;;;;2.75;1.40;;;15.60;99.90;;;;;;10603189;27;20035;-62
2022/10/24 17:47:35;;;;;;;3.28;1.50;;;15.60;99.90;;;;;;10582023;27;20028;-61
2022/10/24 17:52:41;;;;;;;5.88;1.50;;;15.60;99.90;;;;;;10578447;27;20031;-62
2022/10/24 17:57:41;;;;;;;2.08;1.30;;;15.60;99.90;;;;;;10568532;27;20023;-62
2022/10/24 18:03:27;;;;;;;4.53;1.58;;;15.50;99.90;;;;;;10944731;22;20277;-62
2022/10/24 18:08:33;;;;;;;3.85;1.77;;;15.50;99.90;;;;;;10458828;23;20080;-62
2022/10/24 18:13:36;;;;;;;4.75;1.70;;;15.50;99.90;;;;;;10449956;28;20147;-62
2022/10/24 18:18:41;;;;;;;4.95;1.50;;;15.50;99.90;;;;;;10436638;28;20014;-67
2022/10/24 18:23:42;;;;;;;5.35;1.52;;;15.50;99.90;;;;;;10428674;28;20489;-62
2022/10/24 18:28:44;;;;;;;3.92;1.90;;;15.50;99.90;;;;;;10430869;28;20030;-61
2022/10/24 18:33:45;;;;;;;3.72;1.40;;;15.50;99.90;;;;;;10445687;28;20032;-62
2022/10/24 18:38:56;;;;;;;3.20;1.40;;;15.50;99.90;;;;;;10437328;28;20039;-64
2022/10/24 18:43:59;;;;;;;6.05;1.92;;;15.50;99.90;;;;;;10427221;28;20100;-62
2022/10/24 18:49:00;;;;;;;3.22;1.58;;;15.40;99.90;;;;;;10437555;28;20017;-62
2022/10/24 18:54:04;;;;;;;3.60;1.45;;;15.40;99.90;;;;;;10443478;28;20045;-62
2022/10/24 18:59:17;;;;;;;4.63;2.00;;;15.40;99.90;;;;;;10429950;28;20029;-66
2022/10/24 19:04:24;;;;;;;4.88;2.30;;;15.40;99.90;;;;;;10424995;28;20131;-67
2022/10/24 19:09:25;;;;;;;4.65;1.50;;;15.30;99.90;;;;;;10425924;28;20032;-62
2022/10/24 19:14:27;;;;;;;3.25;1.20;;;15.40;99.90;;;;;;10429054;28;20920;-63
2022/10/24 19:19:33;;;;;;;2.80;1.27;;;15.40;99.90;;;;;;10424827;28;20029;-62
2022/10/24 19:24:33;;;;;;;3.28;1.23;;;15.30;99.90;;;;;;10436341;28;20017;-62
2022/10/24 19:29:34;;;;;;;5.28;1.40;;;15.30;99.90;;;;;;10432793;28;20025;-63
2022/10/24 19:34:35;;;;;;;2.85;1.10;;;15.30;99.90;;;;;;10420411;28;20061;-62
2022/10/24 19:39:36;;;;;;;2.50;1.30;;;15.30;99.90;;;;;;10442704;28;20094;-61
2022/10/24 19:44:38;;;;;;;3.53;1.05;;;15.30;99.90;;;;;;10431774;28;20044;-62
2022/10/24 19:49:39;;;;;;;3.85;1.30;;;15.20;99.90;;;;;;10427204;28;20025;-62
2022/10/24 19:54:40;;;;;;;5.18;1.20;;;15.20;99.90;;;;;;10444836;28;20086;-62
2022/10/24 19:59:41;;;;;;;5.10;1.45;;;15.20;99.90;;;;;;10430999;28;20024;-61
2022/10/24 20:04:42;;;;;;;4.65;1.30;;;15.20;99.90;;;;;;10427094;28;20083;-61
2022/10/24 20:09:43;;;;;;;3.55;1.70;;;15.20;99.90;;;;;;10430994;28;20040;-62
2022/10/24 20:14:43;;;;;;;4.38;1.20;;;15.20;99.90;;;;;;10423035;28;20409;-61
2022/10/24 20:19:44;;;;;;;4.18;1.17;;;15.20;99.90;;;;;;10427488;28;20111;-61
2022/10/24 20:24:45;;;;;;;4.15;1.10;;;15.10;99.90;;;;;;10417386;28;20033;-61
2022/10/24 20:29:45;;;;;;;2.70;1.10;;;15.10;99.90;;;;;;10421168;28;20028;-65
2022/10/24 20:34:46;;;;;;;4.43;1.30;;;15.20;99.90;;;;;;10423285;28;20030;-62
2022/10/24 20:39:47;;;;;;;3.08;1.20;;;15.20;99.90;;;;;;10424491;28;20493;-62
2022/10/24 20:44:48;;;;;;;5.00;1.40;;;15.10;99.90;;;;;;10427506;28;20044;-62
2022/10/24 20:49:48;;;;;;;4.18;1.50;;;15.10;99.90;;;;;;10426709;28;20432;-62
2022/10/24 20:54:49;;;;;;;3.88;1.27;;;15.10;99.90;;;;;;10425194;28;20029;-61
2022/10/24 20:59:50;;;;;;;3.88;1.40;;;15.00;99.90;;;;;;10417141;28;20436;-62
2022/10/24 21:04:50;;;;;;;6.10;1.60;;;15.00;99.90;;;;;;10418711;28;20454;-62
2022/10/24 21:09:51;;;;;;;3.03;1.20;;;15.00;99.90;;;;;;10424898;28;20025;-61
2022/10/24 21:14:52;;;;;;;4.18;1.20;;;15.00;99.90;;;;;;10431771;28;20040;-62
2022/10/24 21:19:52;;;;;;;6.68;1.83;;;15.00;99.90;;;;;;10430041;28;20067;-61
2022/10/24 21:24:53;;;;;;;3.95;1.52;;;15.00;99.90;;;;;;10429209;28;20120;-61
2022/10/24 21:29:54;;;;;;;2.95;1.40;;;15.00;99.90;;;;;;10434223;28;20104;-62
2022/10/24 21:34:55;;;;;;;3.80;1.77;;;15.00;99.90;;;;;;10436694;28;20048;-61
2022/10/24 21:39:55;;;;;;;8.15;1.90;;;15.00;99.90;;;;;;10434487;28;20037;-62
2022/10/24 21:44:56;;;;;;;3.88;1.60;;;14.90;99.90;;;;;;10451076;28;20482;-62
2022/10/24 21:49:57;;;;;;;5.18;1.50;;;14.90;99.90;;;;;;10449819;28;20029;-62
2022/10/24 21:54:57;;;;;;;3.38;1.52;;;14.90;99.90;;;;;;10453240;28;20567;-62
2022/10/24 21:59:58;;;;;;;4.78;1.70;;;14.90;99.90;;;;;;10458231;28;20028;-62
2022/10/24 22:04:59;;;;;;;3.13;1.75;;;14.90;99.90;;;;;;10457002;28;20124;-63
2022/10/24 22:09:59;;;;;;;3.53;1.52;;;14.90;99.90;;;;;;10459924;28;20041;-62
2022/10/24 22:15:00;;;;;;;5.45;1.50;;;14.90;99.90;;;;;;10457158;28;20098;-62
2022/10/24 22:20:01;;;;;;;4.88;2.38;;;14.90;99.90;;;;;;10459095;28;20500;-62
2022/10/24 22:25:02;;;;;;;2.85;1.92;;;14.90;99.90;;;;;;10459508;28;20036;-64
2022/10/24 22:30:03;;;;;;;4.80;1.50;;;14.90;99.90;;;;;;10462220;28;20036;-62
2022/10/24 22:35:04;;;;;;;3.05;1.50;;;14.90;99.90;;;;;;10460532;28;20045;-62
2022/10/24 22:40:27;;;;;;;2.58;1.40;;;14.90;99.90;;;;;;10460610;28;20029;-62
2022/10/24 22:45:28;;;;;;;6.63;1.55;;;14.90;99.90;;;;;;10456829;28;20025;-62
2022/10/24 22:50:49;;;;;;;3.20;1.65;;;14.90;99.90;;;;;;10458826;28;20029;-62
2022/10/24 22:55:58;;;;;;;4.47;1.60;;;14.80;99.90;;;;;;10460399;28;20029;-66
2022/10/24 23:01:18;;;;;;;2.97;1.30;;;14.80;99.90;;;;;;10458049;28;20477;-64
2022/10/24 23:06:41;;;;;;;4.88;1.75;;;14.80;99.90;;;;;;10458100;28;20055;-61
2022/10/24 23:11:42;;;;;;;2.67;1.23;;;14.80;99.90;;;;;;10455998;28;20538;-63
2022/10/24 23:16:56;;;;;;;3.35;2.00;;;14.80;99.90;;;;;;10455780;28;20029;-62
2022/10/24 23:22:09;;;;;;;4.10;1.55;;;14.80;99.90;;;;;;10454631;28;20021;-62
2022/10/24 23:27:10;;;;;;;4.35;2.30;;;14.80;99.90;;;;;;10459151;28;20477;-62
2022/10/24 23:32:22;;;;;;;4.32;2.13;;;14.80;99.90;;;;;;10453438;28;20033;-62
2022/10/24 23:37:22;;;;;;;4.45;1.70;;;14.80;99.90;;;;;;10454186;28;20036;-62
2022/10/24 23:42:23;;;;;;;7.28;2.40;;;14.80;99.90;;;;;;10450329;28;20009;-62
2022/10/24 23:47:58;;;;;;;2.83;2.15;;;14.80;99.90;;;;;;10454001;28;20033;-62
2022/10/24 23:53:30;;;;;;;5.53;2.40;;;14.80;99.90;;;;;;10453412;28;20477;-62
2022/10/24 23:58:31;;;;;;;4.75;2.35;;;14.70;99.90;;;;;;10458182;28;20021;-62
